CheckWX is a tool to help pilots better visualize weather data.  It is not intended as a substitute for an official pre-flight weather briefing.

01:10:16 UTC

EGXU METAR
RAF Linton-On-Ouse Airport
Linton-On-Ouse, United Kingdom
Current

1 hour ago

EGXU 192350Z AUTO 17009KT 9999 // SCT050/// BKN100/// 17/16 Q1003
Observed
Jul-19 @ 23:50 UTC
Wind
  • 170° at 9 KTS
Visibility
10,000+ meters
Flight Rules
VFR
Cloud Levels
  • Scattered at 5,000' AGL
  • Broken at 10,000' AGL
Temperature
17°C / 63°F
Dewpoint
16°C / 61°F
Humidity
94%
Altimeter
29.62" Hg
Pressure
1002.92 hPa
Previous

2 hours ago

EGXU 192250Z AUTO 17005KT 9999 // FEW032/// SCT050/// 17/15 Q1003
Observed
Jul-19 @ 22:50 UTC
Wind
  • 170° at 5 KTS
Visibility
10,000+ meters
Flight Rules
VFR
Cloud Levels
  • Few at 3,200' AGL
  • Scattered at 5,000' AGL
Temperature
17°C / 63°F
Dewpoint
15°C / 59°F
Humidity
88%
Altimeter
29.62" Hg
Pressure
1002.92 hPa
Previous

3 hours ago

EGXU 192150Z AUTO 18007KT 9999 // SCT060/// BKN100/// 17/16 Q1004
Observed
Jul-19 @ 21:50 UTC
Wind
  • 180° at 7 KTS
Visibility
10,000+ meters
Flight Rules
VFR
Cloud Levels
  • Scattered at 6,000' AGL
  • Broken at 10,000' AGL
Temperature
17°C / 63°F
Dewpoint
16°C / 61°F
Humidity
94%
Altimeter
29.65" Hg
Pressure
1003.92 hPa